This is the latest recevied weather packets stored in our database for station/object CX5ACA-13. If no packets are shown the sender has not sent any weather packets the latest 10 day(s).
| Time | Temp. | Humidity | Pressure | Rain* | Wind** | Luminosity | Snow |
|---|---|---|---|---|---|---|---|
| 1777663976 | 23.89° C | 67% | 1008.8 hPa | 0 mm | - | 148 W/m² | - |
| 1777663673 | 24.44° C | 66% | 1008.6 hPa | 0 mm | - | 162 W/m² | - |
| 1777663370 | 25° C | 66% | 1008.7 hPa | 0 mm | - | 191 W/m² | - |
| 1777663067 | 25° C | 66% | 1008.8 hPa | 0 mm | - | 211 W/m² | - |
| 1777662765 | 24.44° C | 66% | 1009 hPa | 0 mm | - | 215 W/m² | - |
| 1777662462 | 25.56° C | 64% | 1008.9 hPa | 0 mm | - | 158 W/m² | - |
| 1777662157 | 25.56° C | 64% | 1008.8 hPa | 0 mm | - | 185 W/m² | - |
| 1777661853 | 25° C | 63% | 1008.9 hPa | 0 mm | - | 204 W/m² | - |
| 1777661549 | 25° C | 64% | 1008.9 hPa | 0 mm | - | 210 W/m² | - |
| 1777661245 | 25.56° C | 63% | 1008.9 hPa | 0 mm | - | 288 W/m² | - |
| 1777660940 | 25° C | 64% | 1009 hPa | 0 mm | - | 328 W/m² | - |
| 1777660637 | 25.56° C | 63% | 1008.9 hPa | 0 mm | - | 207 W/m² | - |
| 1777660334 | 25.56° C | 60% | 1008.9 hPa | 0 mm | - | 212 W/m² | - |
| 1777660030 | 25.56° C | 62% | 1009 hPa | 0 mm | - | 333 W/m² | - |
| 1777659727 | 25.56° C | 60% | 1009 hPa | 0 mm | - | 348 W/m² | - |
| 1777659424 | 25.56° C | 59% | 1008.9 hPa | 0 mm | - | 363 W/m² | - |
| 1777659121 | 26.11° C | 60% | 1009.1 hPa | 0 mm | - | 368 W/m² | - |
| 1777658819 | 25.56° C | 60% | 1009.2 hPa | 0 mm | - | 429 W/m² | - |
| 1777658515 | 25° C | 62% | 1009 hPa | 0 mm | - | 352 W/m² | - |
| 1777658211 | 25.56° C | 60% | 1009.1 hPa | 0 mm | - | 434 W/m² | - |
| 1777657909 | 24.44° C | 63% | 1009.2 hPa | 0 mm | - | 414 W/m² | - |
| 1777657605 | 23.89° C | 65% | 1009.2 hPa | 0 mm | - | 298 W/m² | - |
| 1777657303 | 23.89° C | 65% | 1009.3 hPa | 0 mm | - | 385 W/m² | - |
| 1777657000 | 22.78° C | 67% | 1009.4 hPa | 0 mm | - | 287 W/m² | - |
| 1777656697 | 22.78° C | 68% | 1009.4 hPa | 0 mm | - | 185 W/m² | - |
* Rain latest hour (hover to see other rain measurements)
** Current wind speed in m/s (hover to see current wind gust speed)